sensor_id;sensor_type;location;lat;lon;timestamp;P1;durP1;ratioP1;P2;durP2;ratioP2
22236;SDS011;11287;48.122;11.536;2023-08-24T07:43:08;9.88;;;8.85;;
22236;SDS011;11287;48.122;11.536;2023-08-24T07:45:34;15.80;;;11.35;;
22236;SDS011;11287;48.122;11.536;2023-08-24T07:47:59;12.70;;;8.50;;
22236;SDS011;11287;48.122;11.536;2023-08-24T07:50:24;16.40;;;10.10;;
22236;SDS011;11287;48.122;11.536;2023-08-24T07:52:50;11.00;;;8.93;;
22236;SDS011;11287;48.122;11.536;2023-08-24T07:55:15;9.73;;;8.60;;
22236;SDS011;11287;48.122;11.536;2023-08-24T07:57:41;13.57;;;8.80;;
22236;SDS011;11287;48.122;11.536;2023-08-24T08:00:06;9.17;;;8.23;;
22236;SDS011;11287;48.122;11.536;2023-08-24T08:02:34;12.93;;;8.02;;
22236;SDS011;11287;48.122;11.536;2023-08-24T08:05:00;10.85;;;8.18;;
22236;SDS011;11287;48.122;11.536;2023-08-24T08:07:26;9.07;;;8.15;;
22236;SDS011;11287;48.122;11.536;2023-08-24T08:09:52;10.07;;;8.38;;
22236;SDS011;11287;48.122;11.536;2023-08-24T08:12:17;13.32;;;9.50;;
22236;SDS011;11287;48.122;11.536;2023-08-24T08:14:42;9.25;;;8.10;;
22236;SDS011;11287;48.122;11.536;2023-08-24T08:17:08;9.00;;;7.95;;
22236;SDS011;11287;48.122;11.536;2023-08-24T08:19:33;11.10;;;8.90;;
22236;SDS011;11287;48.122;11.536;2023-08-24T08:22:00;11.43;;;8.77;;
22236;SDS011;11287;48.122;11.536;2023-08-24T08:24:26;12.82;;;8.00;;
22236;SDS011;11287;48.122;11.536;2023-08-24T08:26:51;11.13;;;8.15;;
22236;SDS011;11287;48.122;11.536;2023-08-24T08:29:17;12.88;;;7.57;;
22236;SDS011;11287;48.122;11.536;2023-08-24T08:31:42;10.33;;;8.00;;
22236;SDS011;11287;48.122;11.536;2023-08-24T08:34:08;10.77;;;8.30;;
22236;SDS011;11287;48.122;11.536;2023-08-24T08:36:33;11.80;;;8.23;;
22236;SDS011;11287;48.122;11.536;2023-08-24T08:38:58;9.50;;;8.52;;
22236;SDS011;11287;48.122;11.536;2023-08-24T08:41:25;12.37;;;7.90;;
22236;SDS011;11287;48.122;11.536;2023-08-24T08:43:52;10.52;;;7.65;;
22236;SDS011;11287;48.122;11.536;2023-08-24T08:46:18;8.68;;;7.45;;
22236;SDS011;11287;48.122;11.536;2023-08-24T08:48:44;9.27;;;7.85;;
22236;SDS011;11287;48.122;11.536;2023-08-24T08:51:10;11.93;;;8.38;;
22236;SDS011;11287;48.122;11.536;2023-08-24T08:53:36;10.95;;;7.97;;
22236;SDS011;11287;48.122;11.536;2023-08-24T08:56:02;14.33;;;8.77;;
22236;SDS011;11287;48.122;11.536;2023-08-24T08:58:33;14.50;;;8.23;;
22236;SDS011;11287;48.122;11.536;2023-08-24T09:01:01;10.10;;;8.32;;
22236;SDS011;11287;48.122;11.536;2023-08-24T09:03:28;8.60;;;7.80;;
22236;SDS011;11287;48.122;11.536;2023-08-24T09:05:54;8.48;;;7.47;;
22236;SDS011;11287;48.122;11.536;2023-08-24T09:08:19;9.88;;;7.65;;
22236;SDS011;11287;48.122;11.536;2023-08-24T09:10:45;11.63;;;8.13;;
22236;SDS011;11287;48.122;11.536;2023-08-24T09:13:11;9.05;;;7.43;;
22236;SDS011;11287;48.122;11.536;2023-08-24T09:15:37;8.90;;;7.95;;
22236;SDS011;11287;48.122;11.536;2023-08-24T09:18:02;10.20;;;7.57;;
22236;SDS011;11287;48.122;11.536;2023-08-24T09:20:28;9.10;;;7.57;;
22236;SDS011;11287;48.122;11.536;2023-08-24T09:22:57;8.32;;;7.15;;
22236;SDS011;11287;48.122;11.536;2023-08-24T09:25:23;12.90;;;8.02;;
22236;SDS011;11287;48.122;11.536;2023-08-24T09:28:02;8.48;;;7.47;;
22236;SDS011;11287;48.122;11.536;2023-08-24T09:30:32;9.45;;;8.02;;
22236;SDS011;11287;48.122;11.536;2023-08-24T09:33:03;13.48;;;7.25;;
22236;SDS011;11287;48.122;11.536;2023-08-24T09:35:34;13.43;;;6.97;;
22236;SDS011;11287;48.122;11.536;2023-08-24T09:38:23;9.18;;;7.43;;
22236;SDS011;11287;48.122;11.536;2023-08-24T09:40:52;9.50;;;6.80;;
22236;SDS011;11287;48.122;11.536;2023-08-24T09:43:18;7.97;;;6.63;;
22236;SDS011;11287;48.122;11.536;2023-08-24T09:45:53;8.82;;;6.60;;
22236;SDS011;11287;48.122;11.536;2023-08-24T09:48:20;14.55;;;6.70;;
22236;SDS011;11287;48.122;11.536;2023-08-24T09:50:47;7.55;;;6.65;;
22236;SDS011;11287;48.122;11.536;2023-08-24T09:53:15;9.68;;;7.03;;
22236;SDS011;11287;48.122;11.536;2023-08-24T09:55:44;9.73;;;6.13;;
22236;SDS011;11287;48.122;11.536;2023-08-24T09:58:13;7.97;;;6.25;;
22236;SDS011;11287;48.122;11.536;2023-08-24T10:00:39;9.70;;;6.43;;
22236;SDS011;11287;48.122;11.536;2023-08-24T10:03:04;6.80;;;6.20;;
22236;SDS011;11287;48.122;11.536;2023-08-24T10:05:30;35.70;;;13.93;;
22236;SDS011;11287;48.122;11.536;2023-08-24T10:07:56;9.55;;;7.05;;
22236;SDS011;11287;48.122;11.536;2023-08-24T10:10:26;10.50;;;6.45;;
22236;SDS011;11287;48.122;11.536;2023-08-24T10:13:04;7.80;;;4.43;;
22236;SDS011;11287;48.122;11.536;2023-08-24T10:15:33;6.55;;;5.20;;
22236;SDS011;11287;48.122;11.536;2023-08-24T10:17:59;7.85;;;5.07;;
22236;SDS011;11287;48.122;11.536;2023-08-24T10:20:26;5.22;;;4.70;;
22236;SDS011;11287;48.122;11.536;2023-08-24T10:22:51;7.93;;;5.43;;
22236;SDS011;11287;48.122;11.536;2023-08-24T10:25:17;8.75;;;5.43;;
22236;SDS011;11287;48.122;11.536;2023-08-24T10:27:44;10.07;;;6.20;;
22236;SDS011;11287;48.122;11.536;2023-08-24T10:30:12;6.18;;;5.57;;
22236;SDS011;11287;48.122;11.536;2023-08-24T10:32:38;7.15;;;5.80;;
22236;SDS011;11287;48.122;11.536;2023-08-24T10:35:04;6.55;;;5.95;;
22236;SDS011;11287;48.122;11.536;2023-08-24T10:37:30;10.43;;;5.93;;
22236;SDS011;11287;48.122;11.536;2023-08-24T10:39:56;9.77;;;6.43;;
22236;SDS011;11287;48.122;11.536;2023-08-24T10:42:21;12.27;;;7.00;;
22236;SDS011;11287;48.122;11.536;2023-08-24T10:44:47;8.23;;;6.57;;
22236;SDS011;11287;48.122;11.536;2023-08-24T10:49:59;8.30;;;6.22;;
22236;SDS011;11287;48.122;11.536;2023-08-24T10:54:57;9.25;;;6.50;;
22236;SDS011;11287;48.122;11.536;2023-08-24T10:57:26;8.80;;;6.60;;
22236;SDS011;11287;48.122;11.536;2023-08-24T11:00:03;12.18;;;6.07;;
22236;SDS011;11287;48.122;11.536;2023-08-24T11:02:45;9.10;;;5.85;;
22236;SDS011;11287;48.122;11.536;2023-08-24T11:05:16;8.52;;;5.82;;
22236;SDS011;11287;48.122;11.536;2023-08-24T11:07:48;10.35;;;5.95;;
22236;SDS011;11287;48.122;11.536;2023-08-24T11:10:14;7.28;;;5.93;;
22236;SDS011;11287;48.122;11.536;2023-08-24T11:15:31;6.75;;;5.13;;
22236;SDS011;11287;48.122;11.536;2023-08-24T11:18:12;9.60;;;5.32;;
22236;SDS011;11287;48.122;11.536;2023-08-24T11:20:44;6.68;;;5.55;;
22236;SDS011;11287;48.122;11.536;2023-08-24T11:23:10;10.45;;;5.07;;
22236;SDS011;11287;48.122;11.536;2023-08-24T11:25:35;6.38;;;5.22;;
22236;SDS011;11287;48.122;11.536;2023-08-24T11:28:01;9.48;;;5.72;;
22236;SDS011;11287;48.122;11.536;2023-08-24T11:30:29;8.38;;;5.07;;
22236;SDS011;11287;48.122;11.536;2023-08-24T11:32:54;9.23;;;5.18;;
22236;SDS011;11287;48.122;11.536;2023-08-24T11:35:20;10.25;;;5.15;;
22236;SDS011;11287;48.122;11.536;2023-08-24T11:37:51;8.48;;;5.50;;
22236;SDS011;11287;48.122;11.536;2023-08-24T11:40:22;10.05;;;5.57;;
22236;SDS011;11287;48.122;11.536;2023-08-24T11:42:56;7.80;;;4.97;;
22236;SDS011;11287;48.122;11.536;2023-08-24T11:45:22;8.75;;;4.85;;
22236;SDS011;11287;48.122;11.536;2023-08-24T11:47:50;9.80;;;4.93;;
22236;SDS011;11287;48.122;11.536;2023-08-24T11:50:16;8.65;;;5.05;;
22236;SDS011;11287;48.122;11.536;2023-08-24T11:52:42;8.07;;;4.72;;
22236;SDS011;11287;48.122;11.536;2023-08-24T11:55:08;13.00;;;5.18;;
22236;SDS011;11287;48.122;11.536;2023-08-24T11:57:37;8.25;;;5.22;;
22236;SDS011;11287;48.122;11.536;2023-08-24T12:00:06;18.10;;;5.03;;
22236;SDS011;11287;48.122;11.536;2023-08-24T12:02:32;9.40;;;4.60;;
22236;SDS011;11287;48.122;11.536;2023-08-24T12:04:58;13.20;;;5.20;;
22236;SDS011;11287;48.122;11.536;2023-08-24T12:07:24;5.88;;;4.57;;
22236;SDS011;11287;48.122;11.536;2023-08-24T12:09:51;9.80;;;4.65;;
22236;SDS011;11287;48.122;11.536;2023-08-24T12:12:19;10.07;;;5.03;;
22236;SDS011;11287;48.122;11.536;2023-08-24T12:14:45;15.13;;;4.53;;
22236;SDS011;11287;48.122;11.536;2023-08-24T12:17:12;8.43;;;4.43;;
22236;SDS011;11287;48.122;11.536;2023-08-24T12:19:57;11.77;;;4.82;;
22236;SDS011;11287;48.122;11.536;2023-08-24T12:22:26;9.52;;;4.65;;
22236;SDS011;11287;48.122;11.536;2023-08-24T12:24:51;13.57;;;4.65;;
22236;SDS011;11287;48.122;11.536;2023-08-24T12:27:17;10.98;;;4.55;;
22236;SDS011;11287;48.122;11.536;2023-08-24T12:29:49;10.03;;;4.60;;
22236;SDS011;11287;48.122;11.536;2023-08-24T12:32:15;10.40;;;4.45;;
22236;SDS011;11287;48.122;11.536;2023-08-24T12:34:44;9.27;;;4.63;;
22236;SDS011;11287;48.122;11.536;2023-08-24T12:37:11;15.27;;;5.00;;
22236;SDS011;11287;48.122;11.536;2023-08-24T12:39:36;10.02;;;4.55;;
22236;SDS011;11287;48.122;11.536;2023-08-24T12:42:02;14.45;;;4.60;;
22236;SDS011;11287;48.122;11.536;2023-08-24T12:44:28;9.35;;;4.57;;
22236;SDS011;11287;48.122;11.536;2023-08-24T12:46:53;12.53;;;4.87;;
22236;SDS011;11287;48.122;11.536;2023-08-24T12:49:19;9.90;;;5.27;;
22236;SDS011;11287;48.122;11.536;2023-08-24T12:51:44;10.57;;;4.80;;
22236;SDS011;11287;48.122;11.536;2023-08-24T12:54:11;8.30;;;4.63;;
22236;SDS011;11287;48.122;11.536;2023-08-24T12:56:37;13.75;;;4.90;;
22236;SDS011;11287;48.122;11.536;2023-08-24T12:59:04;13.48;;;5.15;;
22236;SDS011;11287;48.122;11.536;2023-08-24T13:01:29;11.23;;;4.80;;
22236;SDS011;11287;48.122;11.536;2023-08-24T13:03:55;9.17;;;4.77;;
22236;SDS011;11287;48.122;11.536;2023-08-24T13:06:20;9.07;;;4.40;;
22236;SDS011;11287;48.122;11.536;2023-08-24T13:08:46;14.93;;;5.00;;
22236;SDS011;11287;48.122;11.536;2023-08-24T13:11:11;9.00;;;4.07;;
22236;SDS011;11287;48.122;11.536;2023-08-24T13:13:36;8.20;;;4.10;;
22236;SDS011;11287;48.122;11.536;2023-08-24T13:16:02;9.60;;;3.92;;
22236;SDS011;11287;48.122;11.536;2023-08-24T13:18:27;8.10;;;4.40;;
22236;SDS011;11287;48.122;11.536;2023-08-24T13:20:53;11.88;;;4.97;;
22236;SDS011;11287;48.122;11.536;2023-08-24T13:23:18;13.53;;;5.20;;
22236;SDS011;11287;48.122;11.536;2023-08-24T13:25:43;8.93;;;5.03;;
22236;SDS011;11287;48.122;11.536;2023-08-24T13:28:08;10.70;;;4.80;;
22236;SDS011;11287;48.122;11.536;2023-08-24T13:30:34;11.43;;;4.20;;
22236;SDS011;11287;48.122;11.536;2023-08-24T13:32:59;14.27;;;4.75;;
22236;SDS011;11287;48.122;11.536;2023-08-24T13:35:25;11.50;;;4.57;;
22236;SDS011;11287;48.122;11.536;2023-08-24T13:37:50;9.80;;;5.27;;
22236;SDS011;11287;48.122;11.536;2023-08-24T13:40:16;9.97;;;4.73;;
22236;SDS011;11287;48.122;11.536;2023-08-24T13:42:41;10.80;;;5.32;;
22236;SDS011;11287;48.122;11.536;2023-08-24T13:45:07;15.70;;;4.63;;
22236;SDS011;11287;48.122;11.536;2023-08-24T13:47:32;12.52;;;4.60;;
22236;SDS011;11287;48.122;11.536;2023-08-24T13:49:58;13.60;;;5.10;;
22236;SDS011;11287;48.122;11.536;2023-08-24T13:52:23;16.57;;;5.17;;
22236;SDS011;11287;48.122;11.536;2023-08-24T13:54:48;14.63;;;4.97;;
22236;SDS011;11287;48.122;11.536;2023-08-24T13:57:14;12.43;;;4.78;;
22236;SDS011;11287;48.122;11.536;2023-08-24T13:59:39;11.05;;;4.80;;
22236;SDS011;11287;48.122;11.536;2023-08-24T14:02:05;13.90;;;4.50;;
22236;SDS011;11287;48.122;11.536;2023-08-24T14:04:30;15.20;;;4.90;;
22236;SDS011;11287;48.122;11.536;2023-08-24T14:06:56;11.80;;;5.47;;
22236;SDS011;11287;48.122;11.536;2023-08-24T14:09:21;10.77;;;4.83;;
22236;SDS011;11287;48.122;11.536;2023-08-24T14:11:46;11.15;;;4.60;;
22236;SDS011;11287;48.122;11.536;2023-08-24T14:14:12;12.75;;;5.47;;
22236;SDS011;11287;48.122;11.536;2023-08-24T14:16:38;13.77;;;5.05;;
22236;SDS011;11287;48.122;11.536;2023-08-24T14:19:03;13.77;;;5.10;;
22236;SDS011;11287;48.122;11.536;2023-08-24T14:21:29;9.32;;;4.63;;
22236;SDS011;11287;48.122;11.536;2023-08-24T14:23:54;12.63;;;5.65;;
22236;SDS011;11287;48.122;11.536;2023-08-24T14:26:19;12.00;;;4.77;;
22236;SDS011;11287;48.122;11.536;2023-08-24T14:28:49;11.73;;;4.50;;
22236;SDS011;11287;48.122;11.536;2023-08-24T14:31:19;18.35;;;5.25;;
22236;SDS011;11287;48.122;11.536;2023-08-24T14:33:45;17.38;;;5.35;;
22236;SDS011;11287;48.122;11.536;2023-08-24T14:36:10;14.17;;;5.07;;
22236;SDS011;11287;48.122;11.536;2023-08-24T14:38:38;14.10;;;4.95;;
22236;SDS011;11287;48.122;11.536;2023-08-24T14:41:04;14.75;;;5.32;;
22236;SDS011;11287;48.122;11.536;2023-08-24T14:43:30;9.73;;;4.67;;
22236;SDS011;11287;48.122;11.536;2023-08-24T14:45:55;14.63;;;4.53;;
22236;SDS011;11287;48.122;11.536;2023-08-24T14:48:20;15.60;;;4.60;;
22236;SDS011;11287;48.122;11.536;2023-08-24T14:50:45;8.20;;;4.70;;
22236;SDS011;11287;48.122;11.536;2023-08-24T14:53:11;12.40;;;4.72;;
22236;SDS011;11287;48.122;11.536;2023-08-24T14:55:39;13.02;;;4.95;;
22236;SDS011;11287;48.122;11.536;2023-08-24T14:58:05;13.30;;;5.32;;
22236;SDS011;11287;48.122;11.536;2023-08-24T15:00:31;10.73;;;5.13;;
22236;SDS011;11287;48.122;11.536;2023-08-24T15:02:56;16.93;;;5.10;;
22236;SDS011;11287;48.122;11.536;2023-08-24T15:05:21;11.90;;;4.90;;
22236;SDS011;11287;48.122;11.536;2023-08-24T15:07:47;15.73;;;5.00;;
22236;SDS011;11287;48.122;11.536;2023-08-24T15:10:12;10.90;;;5.20;;
22236;SDS011;11287;48.122;11.536;2023-08-24T15:12:38;11.38;;;5.50;;
22236;SDS011;11287;48.122;11.536;2023-08-24T15:15:03;20.40;;;5.93;;
22236;SDS011;11287;48.122;11.536;2023-08-24T15:17:29;11.73;;;5.07;;
22236;SDS011;11287;48.122;11.536;2023-08-24T15:19:56;14.68;;;4.70;;
22236;SDS011;11287;48.122;11.536;2023-08-24T15:22:22;17.45;;;4.80;;
22236;SDS011;11287;48.122;11.536;2023-08-24T15:24:47;21.65;;;5.07;;
22236;SDS011;11287;48.122;11.536;2023-08-24T15:27:13;19.03;;;5.17;;
22236;SDS011;11287;48.122;11.536;2023-08-24T15:29:38;17.70;;;4.80;;
22236;SDS011;11287;48.122;11.536;2023-08-24T15:32:03;21.40;;;4.77;;
22236;SDS011;11287;48.122;11.536;2023-08-24T15:34:29;21.40;;;5.03;;
22236;SDS011;11287;48.122;11.536;2023-08-24T15:36:55;15.60;;;4.80;;
22236;SDS011;11287;48.122;11.536;2023-08-24T15:39:20;16.70;;;4.95;;
22236;SDS011;11287;48.122;11.536;2023-08-24T15:41:46;13.65;;;4.47;;
22236;SDS011;11287;48.122;11.536;2023-08-24T15:44:11;15.80;;;4.63;;
22236;SDS011;11287;48.122;11.536;2023-08-24T15:46:37;21.23;;;4.80;;
22236;SDS011;11287;48.122;11.536;2023-08-24T15:49:02;18.92;;;5.40;;
22236;SDS011;11287;48.122;11.536;2023-08-24T15:51:28;20.35;;;5.45;;
22236;SDS011;11287;48.122;11.536;2023-08-24T15:53:53;15.17;;;4.93;;
22236;SDS011;11287;48.122;11.536;2023-08-24T15:56:19;12.73;;;4.55;;
22236;SDS011;11287;48.122;11.536;2023-08-24T15:58:44;15.90;;;5.27;;
22236;SDS011;11287;48.122;11.536;2023-08-24T16:01:10;21.85;;;5.15;;
22236;SDS011;11287;48.122;11.536;2023-08-24T16:03:36;22.00;;;6.80;;
22236;SDS011;11287;48.122;11.536;2023-08-24T16:06:01;19.00;;;4.77;;
22236;SDS011;11287;48.122;11.536;2023-08-24T16:08:26;18.00;;;4.83;;
22236;SDS011;11287;48.122;11.536;2023-08-24T16:10:55;26.27;;;5.60;;
22236;SDS011;11287;48.122;11.536;2023-08-24T16:13:21;23.77;;;4.47;;
22236;SDS011;11287;48.122;11.536;2023-08-24T16:15:47;22.73;;;4.53;;
22236;SDS011;11287;48.122;11.536;2023-08-24T16:18:12;18.17;;;5.23;;
22236;SDS011;11287;48.122;11.536;2023-08-24T16:20:38;18.17;;;4.50;;
22236;SDS011;11287;48.122;11.536;2023-08-24T16:23:03;22.73;;;4.70;;
22236;SDS011;11287;48.122;11.536;2023-08-24T16:25:29;28.52;;;4.20;;
22236;SDS011;11287;48.122;11.536;2023-08-24T16:27:54;21.20;;;5.03;;
22236;SDS011;11287;48.122;11.536;2023-08-24T16:30:20;21.80;;;5.32;;
22236;SDS011;11287;48.122;11.536;2023-08-24T16:32:45;16.73;;;4.57;;
22236;SDS011;11287;48.122;11.536;2023-08-24T16:35:10;15.70;;;5.22;;
22236;SDS011;11287;48.122;11.536;2023-08-24T16:37:36;14.20;;;6.72;;
22236;SDS011;11287;48.122;11.536;2023-08-24T16:40:01;17.27;;;8.30;;
22236;SDS011;11287;48.122;11.536;2023-08-24T16:42:27;12.20;;;6.03;;
22236;SDS011;11287;48.122;11.536;2023-08-24T16:44:53;10.70;;;5.80;;
22236;SDS011;11287;48.122;11.536;2023-08-24T16:47:18;11.77;;;5.90;;
22236;SDS011;11287;48.122;11.536;2023-08-24T16:49:43;15.57;;;6.17;;
22236;SDS011;11287;48.122;11.536;2023-08-24T16:52:09;13.23;;;5.60;;
22236;SDS011;11287;48.122;11.536;2023-08-24T16:54:34;14.73;;;6.20;;
22236;SDS011;11287;48.122;11.536;2023-08-24T16:57:00;14.33;;;5.67;;
22236;SDS011;11287;48.122;11.536;2023-08-24T16:59:25;13.65;;;6.30;;
22236;SDS011;11287;48.122;11.536;2023-08-24T17:01:50;14.02;;;6.22;;
22236;SDS011;11287;48.122;11.536;2023-08-24T17:04:16;17.88;;;6.22;;
22236;SDS011;11287;48.122;11.536;2023-08-24T17:06:42;14.23;;;6.70;;
22236;SDS011;11287;48.122;11.536;2023-08-24T17:09:07;11.85;;;6.32;;
22236;SDS011;11287;48.122;11.536;2023-08-24T17:11:32;10.43;;;5.68;;
22236;SDS011;11287;48.122;11.536;2023-08-24T17:13:58;12.55;;;6.35;;
22236;SDS011;11287;48.122;11.536;2023-08-24T17:16:23;20.57;;;6.10;;
22236;SDS011;11287;48.122;11.536;2023-08-24T17:18:49;12.80;;;6.00;;
22236;SDS011;11287;48.122;11.536;2023-08-24T17:21:14;13.60;;;5.67;;
22236;SDS011;11287;48.122;11.536;2023-08-24T17:23:40;12.90;;;5.90;;
22236;SDS011;11287;48.122;11.536;2023-08-24T17:26:05;13.60;;;5.80;;
22236;SDS011;11287;48.122;11.536;2023-08-24T17:28:31;11.20;;;5.27;;
22236;SDS011;11287;48.122;11.536;2023-08-24T17:30:56;14.85;;;5.97;;
22236;SDS011;11287;48.122;11.536;2023-08-24T17:33:22;17.73;;;6.13;;
22236;SDS011;11287;48.122;11.536;2023-08-24T17:35:48;9.88;;;5.80;;
22236;SDS011;11287;48.122;11.536;2023-08-24T17:38:15;11.35;;;5.93;;
22236;SDS011;11287;48.122;11.536;2023-08-24T17:40:40;9.93;;;5.90;;
22236;SDS011;11287;48.122;11.536;2023-08-24T17:43:05;12.50;;;6.00;;
22236;SDS011;11287;48.122;11.536;2023-08-24T17:45:31;10.73;;;6.57;;
22236;SDS011;11287;48.122;11.536;2023-08-24T17:47:56;14.23;;;7.60;;
22236;SDS011;11287;48.122;11.536;2023-08-24T17:50:21;13.10;;;7.20;;
22236;SDS011;11287;48.122;11.536;2023-08-24T17:52:47;12.25;;;7.75;;
22236;SDS011;11287;48.122;11.536;2023-08-24T17:55:12;11.68;;;7.57;;
22236;SDS011;11287;48.122;11.536;2023-08-24T17:57:38;13.33;;;7.50;;
22236;SDS011;11287;48.122;11.536;2023-08-24T18:00:03;13.50;;;8.05;;
22236;SDS011;11287;48.122;11.536;2023-08-24T18:02:34;13.63;;;7.90;;
22236;SDS011;11287;48.122;11.536;2023-08-24T18:04:59;11.55;;;8.00;;
22236;SDS011;11287;48.122;11.536;2023-08-24T18:07:25;8.97;;;7.73;;
22236;SDS011;11287;48.122;11.536;2023-08-24T18:09:50;12.20;;;7.63;;
22236;SDS011;11287;48.122;11.536;2023-08-24T18:12:15;8.80;;;7.43;;
22236;SDS011;11287;48.122;11.536;2023-08-24T18:14:41;15.53;;;7.70;;
22236;SDS011;11287;48.122;11.536;2023-08-24T18:17:06;10.47;;;7.73;;
22236;SDS011;11287;48.122;11.536;2023-08-24T18:19:31;14.50;;;7.68;;
22236;SDS011;11287;48.122;11.536;2023-08-24T18:21:57;11.48;;;7.78;;
22236;SDS011;11287;48.122;11.536;2023-08-24T18:24:22;13.05;;;8.30;;
22236;SDS011;11287;48.122;11.536;2023-08-24T18:26:48;12.25;;;8.07;;
22236;SDS011;11287;48.122;11.536;2023-08-24T18:29:13;11.32;;;7.85;;
22236;SDS011;11287;48.122;11.536;2023-08-24T18:31:39;11.98;;;7.53;;
22236;SDS011;11287;48.122;11.536;2023-08-24T18:34:05;10.25;;;7.50;;
22236;SDS011;11287;48.122;11.536;2023-08-24T18:36:31;16.73;;;9.05;;
22236;SDS011;11287;48.122;11.536;2023-08-24T18:38:57;12.25;;;7.90;;
22236;SDS011;11287;48.122;11.536;2023-08-24T18:41:22;11.07;;;8.50;;
22236;SDS011;11287;48.122;11.536;2023-08-24T18:43:48;16.85;;;7.93;;
22236;SDS011;11287;48.122;11.536;2023-08-24T18:46:13;10.30;;;7.43;;
22236;SDS011;11287;48.122;11.536;2023-08-24T18:48:38;12.00;;;7.20;;
22236;SDS011;11287;48.122;11.536;2023-08-24T18:51:04;8.35;;;7.47;;
22236;SDS011;11287;48.122;11.536;2023-08-24T18:53:29;12.25;;;8.10;;
22236;SDS011;11287;48.122;11.536;2023-08-24T18:55:55;11.55;;;8.02;;
22236;SDS011;11287;48.122;11.536;2023-08-24T18:58:20;8.70;;;7.80;;
22236;SDS011;11287;48.122;11.536;2023-08-24T19:00:46;14.27;;;8.15;;
22236;SDS011;11287;48.122;11.536;2023-08-24T19:03:11;13.00;;;8.40;;
22236;SDS011;11287;48.122;11.536;2023-08-24T19:05:36;9.00;;;7.53;;
22236;SDS011;11287;48.122;11.536;2023-08-24T19:08:02;11.90;;;7.63;;
22236;SDS011;11287;48.122;11.536;2023-08-24T19:10:27;9.10;;;7.40;;
22236;SDS011;11287;48.122;11.536;2023-08-24T19:12:53;11.65;;;7.63;;
22236;SDS011;11287;48.122;11.536;2023-08-24T19:15:18;12.07;;;8.63;;
22236;SDS011;11287;48.122;11.536;2023-08-24T19:17:44;11.57;;;8.45;;
22236;SDS011;11287;48.122;11.536;2023-08-24T19:20:09;11.02;;;7.82;;
22236;SDS011;11287;48.122;11.536;2023-08-24T19:22:35;13.90;;;9.27;;
22236;SDS011;11287;48.122;11.536;2023-08-24T19:25:00;11.37;;;8.07;;
22236;SDS011;11287;48.122;11.536;2023-08-24T19:27:28;11.82;;;8.07;;
22236;SDS011;11287;48.122;11.536;2023-08-24T19:29:53;12.17;;;7.60;;
22236;SDS011;11287;48.122;11.536;2023-08-24T19:32:19;8.60;;;7.70;;
22236;SDS011;11287;48.122;11.536;2023-08-24T19:34:44;11.43;;;7.63;;
22236;SDS011;11287;48.122;11.536;2023-08-24T19:37:09;14.98;;;8.35;;
22236;SDS011;11287;48.122;11.536;2023-08-24T19:39:35;11.93;;;7.55;;
22236;SDS011;11287;48.122;11.536;2023-08-24T19:42:00;11.20;;;8.10;;
22236;SDS011;11287;48.122;11.536;2023-08-24T19:44:25;12.00;;;8.13;;
22236;SDS011;11287;48.122;11.536;2023-08-24T19:46:51;10.85;;;8.15;;
22236;SDS011;11287;48.122;11.536;2023-08-24T19:49:16;13.63;;;8.53;;
22236;SDS011;11287;48.122;11.536;2023-08-24T19:51:41;9.85;;;8.05;;
22236;SDS011;11287;48.122;11.536;2023-08-24T19:54:07;12.17;;;8.67;;
22236;SDS011;11287;48.122;11.536;2023-08-24T19:56:32;9.30;;;8.37;;
22236;SDS011;11287;48.122;11.536;2023-08-24T19:58:57;11.47;;;8.70;;
22236;SDS011;11287;48.122;11.536;2023-08-24T20:01:23;12.67;;;8.87;;
22236;SDS011;11287;48.122;11.536;2023-08-24T20:03:48;11.70;;;8.52;;
22236;SDS011;11287;48.122;11.536;2023-08-24T20:06:17;12.93;;;8.60;;
22236;SDS011;11287;48.122;11.536;2023-08-24T20:08:44;15.35;;;9.00;;
22236;SDS011;11287;48.122;11.536;2023-08-24T20:11:09;19.13;;;9.27;;
22236;SDS011;11287;48.122;11.536;2023-08-24T20:13:35;11.18;;;8.57;;
22236;SDS011;11287;48.122;11.536;2023-08-24T20:16:03;11.25;;;8.75;;
22236;SDS011;11287;48.122;11.536;2023-08-24T20:18:30;10.25;;;8.60;;
22236;SDS011;11287;48.122;11.536;2023-08-24T20:20:56;10.38;;;8.15;;
22236;SDS011;11287;48.122;11.536;2023-08-24T20:23:21;11.77;;;8.80;;
22236;SDS011;11287;48.122;11.536;2023-08-24T20:25:46;10.47;;;8.93;;
22236;SDS011;11287;48.122;11.536;2023-08-24T20:28:11;11.97;;;8.47;;
22236;SDS011;11287;48.122;11.536;2023-08-24T20:30:37;11.65;;;8.65;;
22236;SDS011;11287;48.122;11.536;2023-08-24T20:33:02;11.30;;;9.13;;
22236;SDS011;11287;48.122;11.536;2023-08-24T20:35:28;13.32;;;9.15;;
22236;SDS011;11287;48.122;11.536;2023-08-24T20:37:53;13.60;;;8.83;;
22236;SDS011;11287;48.122;11.536;2023-08-24T20:40:18;64.17;;;7.40;;
22236;SDS011;11287;48.122;11.536;2023-08-24T20:42:44;92.97;;;7.35;;
22236;SDS011;11287;48.122;11.536;2023-08-24T20:45:09;38.97;;;3.53;;
22236;SDS011;11287;48.122;11.536;2023-08-24T20:47:34;28.75;;;3.25;;
22236;SDS011;11287;48.122;11.536;2023-08-24T20:50:00;22.67;;;3.30;;
22236;SDS011;11287;48.122;11.536;2023-08-24T20:52:25;23.60;;;2.80;;
22236;SDS011;11287;48.122;11.536;2023-08-24T20:54:50;18.25;;;2.90;;
22236;SDS011;11287;48.122;11.536;2023-08-24T20:57:16;18.10;;;2.70;;
22236;SDS011;11287;48.122;11.536;2023-08-24T20:59:41;12.38;;;2.70;;
22236;SDS011;11287;48.122;11.536;2023-08-24T21:02:07;7.72;;;3.20;;
22236;SDS011;11287;48.122;11.536;2023-08-24T21:04:33;11.95;;;2.53;;
22236;SDS011;11287;48.122;11.536;2023-08-24T21:06:58;11.45;;;2.75;;
22236;SDS011;11287;48.122;11.536;2023-08-24T21:09:24;9.25;;;2.40;;
22236;SDS011;11287;48.122;11.536;2023-08-24T21:11:50;6.20;;;2.30;;
22236;SDS011;11287;48.122;11.536;2023-08-24T21:14:15;9.65;;;2.50;;
22236;SDS011;11287;48.122;11.536;2023-08-24T21:16:41;11.65;;;2.75;;
22236;SDS011;11287;48.122;11.536;2023-08-24T21:19:06;8.15;;;2.47;;
22236;SDS011;11287;48.122;11.536;2023-08-24T21:21:31;8.73;;;2.90;;
22236;SDS011;11287;48.122;11.536;2023-08-24T21:23:56;9.35;;;2.83;;
22236;SDS011;11287;48.122;11.536;2023-08-24T21:26:22;15.05;;;2.88;;
22236;SDS011;11287;48.122;11.536;2023-08-24T21:28:47;9.23;;;2.80;;
22236;SDS011;11287;48.122;11.536;2023-08-24T21:31:12;8.57;;;2.97;;
22236;SDS011;11287;48.122;11.536;2023-08-24T21:33:38;8.50;;;2.58;;
22236;SDS011;11287;48.122;11.536;2023-08-24T21:36:03;10.25;;;2.95;;
22236;SDS011;11287;48.122;11.536;2023-08-24T21:38:29;10.82;;;3.08;;
22236;SDS011;11287;48.122;11.536;2023-08-24T21:40:55;8.38;;;3.10;;
22236;SDS011;11287;48.122;11.536;2023-08-24T21:43:21;8.95;;;3.55;;
22236;SDS011;11287;48.122;11.536;2023-08-24T21:45:56;9.48;;;3.92;;
22236;SDS011;11287;48.122;11.536;2023-08-24T21:48:24;10.98;;;3.80;;
22236;SDS011;11287;48.122;11.536;2023-08-24T21:50:50;7.72;;;3.70;;
22236;SDS011;11287;48.122;11.536;2023-08-24T21:53:16;12.55;;;3.67;;
22236;SDS011;11287;48.122;11.536;2023-08-24T21:55:41;12.93;;;3.67;;
22236;SDS011;11287;48.122;11.536;2023-08-24T21:58:07;9.55;;;4.18;;
22236;SDS011;11287;48.122;11.536;2023-08-24T22:00:32;11.30;;;4.05;;
22236;SDS011;11287;48.122;11.536;2023-08-24T22:02:59;6.90;;;3.63;;
22236;SDS011;11287;48.122;11.536;2023-08-24T22:05:24;10.75;;;4.10;;
22236;SDS011;11287;48.122;11.536;2023-08-24T22:07:50;9.60;;;3.95;;
22236;SDS011;11287;48.122;11.536;2023-08-24T22:10:15;9.82;;;3.97;;